Jag har haft lite svårt att boka ny flygtid den senaste tiden. Det beror på lärarbrist i klubben just nu. Skolchefen har kört hårt i många år och behöver några helger ledigt, en lärare har flyttat från stan och skolar så mkt han kan när han är tillbaka på besök och den tredje har max elever just nu.

Så, även om vädret är som idag:

ESGG 291120Z 18011KT CAVOK 23/05 Q1010=

och klubbens flygplan är ledigt så kommer jag inte upp i luften. Oerhört frustrerande.

Men, idag är det uppflygning för en av eleverna i klubben, och lyckas han så är det min tur att hoppa in på hans plats hos den “tredje” flygläraren. Då är det äntligen lugnt, då är jag en av hans elever och får fokus och möjligheter att flyga.

Så, lycka till idag!  säger jag och håller sannerligen tummarna och hoppas på samma underbara väder när det väl är dags för min egen uppflygning.